createdAt,value
2019-02-15T00:00:37.765Z,-931.65
2019-02-15T00:01:38.006Z,-937.31
2019-02-15T00:02:38.218Z,-939.24
2019-02-15T00:03:38.462Z,-934.40
2019-02-15T00:04:38.802Z,-929.68
2019-02-15T00:05:38.908Z,-932.60
2019-02-15T00:06:39.151Z,-929.92
2019-02-15T00:07:39.364Z,-935.52
2019-02-15T00:08:39.581Z,-935.54
2019-02-15T00:09:39.841Z,-936.48
2019-02-15T00:10:40.084Z,-936.09
2019-02-15T00:11:40.328Z,-939.54
2019-02-15T00:12:40.655Z,-937.16
2019-02-15T00:13:40.742Z,-935.44
2019-02-15T00:14:41.018Z,-939.95
2019-02-15T00:15:41.239Z,-935.13
2019-02-15T00:16:41.477Z,-932.48
2019-02-15T00:17:41.689Z,-940.67
2019-02-15T00:18:41.923Z,-940.59
2019-02-15T00:19:42.154Z,-938.47
2019-02-15T00:20:42.475Z,-937.48
2019-02-15T00:21:42.621Z,-939.88
2019-02-15T00:22:42.826Z,-939.04
2019-02-15T00:23:43.067Z,-935.83
2019-02-15T00:24:43.311Z,-932.38
2019-02-15T00:25:43.518Z,-928.89
2019-02-15T00:26:43.773Z,-928.26
2019-02-15T00:27:44.002Z,-927.83
2019-02-15T00:28:44.275Z,-930.53
2019-02-15T00:29:44.456Z,-929.36
2019-02-15T00:30:44.693Z,-930.46
2019-02-15T00:31:44.931Z,-927.51
2019-02-15T00:32:45.143Z,-933.16
2019-02-15T00:33:45.376Z,-938.54
2019-02-15T00:34:45.628Z,-941.52
2019-02-15T00:35:45.839Z,-934.50
2019-02-15T00:36:46.112Z,-934.60
2019-02-15T00:37:46.365Z,-932.92
2019-02-15T00:38:46.529Z,-942.68
2019-02-15T00:39:46.779Z,-937.32
2019-02-15T00:40:46.999Z,-934.16
2019-02-15T00:41:47.239Z,-937.84
2019-02-15T00:42:47.432Z,-939.92
2019-02-15T00:43:47.679Z,-940.83
2019-02-15T00:44:47.946Z,-941.93
2019-02-15T00:45:48.321Z,-943.20
2019-02-15T00:46:48.403Z,-947.47
2019-02-15T00:47:48.612Z,-944.30
2019-02-15T00:48:49.095Z,-948.40
2019-02-15T00:49:49.094Z,-939.85
2019-02-15T00:50:49.325Z,-935.80
2019-02-15T00:51:49.579Z,-897.33
2019-02-15T00:52:49.774Z,-932.74
2019-02-15T00:53:50.084Z,-920.69
2019-02-15T00:54:50.243Z,-927.36
2019-02-15T00:55:50.456Z,-938.76
2019-02-15T00:56:50.706Z,-936.84
2019-02-15T00:57:50.934Z,-938.38
2019-02-15T00:58:51.152Z,-939.46
2019-02-15T00:59:51.390Z,-882.98
2019-02-15T01:00:51.628Z,-884.78
2019-02-15T01:01:51.898Z,-936.58
2019-02-15T01:02:52.085Z,-939.79
2019-02-15T01:03:52.322Z,-941.14
2019-02-15T01:04:52.553Z,-937.63
2019-02-15T01:05:52.783Z,-941.47
2019-02-15T01:06:53.047Z,-941.03
2019-02-15T01:07:53.278Z,-942.48
2019-02-15T01:08:53.486Z,-935.54
2019-02-15T01:09:53.796Z,-939.81
2019-02-15T01:10:53.918Z,-935.51
2019-02-15T01:11:54.202Z,-941.28
2019-02-15T01:12:54.430Z,-941.11
2019-02-15T01:13:54.642Z,-946.38
2019-02-15T01:14:54.890Z,-940.24
2019-02-15T01:15:55.104Z,-937.42
2019-02-15T01:16:55.328Z,-942.88
2019-02-15T01:17:55.611Z,-945.63
2019-02-15T01:18:55.920Z,-935.31
2019-02-15T01:19:56.056Z,-940.71
2019-02-15T01:20:56.269Z,-941.56
2019-02-15T01:21:56.520Z,-939.52
2019-02-15T01:22:56.746Z,-938.79
2019-02-15T01:23:56.960Z,-942.30
2019-02-15T01:24:57.206Z,-939.91
2019-02-15T01:25:57.420Z,-940.66
2019-02-15T01:26:57.753Z,-943.45
2019-02-15T01:27:57.893Z,-936.87
2019-02-15T01:28:58.108Z,-938.28
2019-02-15T01:29:58.358Z,-941.16
2019-02-15T01:30:58.577Z,-942.40
2019-02-15T01:31:58.830Z,-940.67
2019-02-15T01:32:59.034Z,-939.33
2019-02-15T01:33:59.269Z,-939.22
2019-02-15T01:34:59.632Z,-943.86
2019-02-15T01:35:59.731Z,-940.11
2019-02-15T01:36:59.984Z,-935.48
2019-02-15T01:38:00.192Z,-941.89
2019-02-15T01:39:00.427Z,-935.63
2019-02-15T01:40:00.677Z,-935.40
2019-02-15T01:41:00.888Z,-946.38
2019-02-15T01:42:01.223Z,-945.15
2019-02-15T01:43:01.403Z,-945.34
2019-02-15T01:44:01.546Z,-936.71
2019-02-15T01:45:01.818Z,-937.36
2019-02-15T01:46:02.043Z,-940.24
2019-02-15T01:47:02.273Z,-939.42
2019-02-15T01:48:02.544Z,-945.32
2019-02-15T01:49:02.728Z,-939.48
2019-02-15T01:50:02.969Z,-942.26
2019-02-15T01:51:03.263Z,-947.87
2019-02-15T01:52:03.474Z,-944.78
2019-02-15T01:53:03.674Z,-951.87
2019-02-15T01:54:03.896Z,-945.88
2019-02-15T01:55:04.101Z,-941.47
2019-02-15T01:56:04.330Z,-942.46
2019-02-15T01:57:04.588Z,-951.49
2019-02-15T01:58:04.838Z,-944.04
2019-02-15T01:59:05.046Z,-944.65
2019-02-15T02:00:05.399Z,-945.23
2019-02-15T02:01:05.522Z,-944.38
2019-02-15T02:02:05.762Z,-948.52
2019-02-15T02:03:06.047Z,-949.56
2019-02-15T02:04:06.222Z,-940.83
2019-02-15T02:05:06.452Z,-943.03
2019-02-15T02:06:06.676Z,-941.95
2019-02-15T02:07:06.923Z,-940.71
2019-02-15T02:08:07.341Z,-945.71
2019-02-15T02:09:07.410Z,-945.29
2019-02-15T02:10:07.624Z,-940.75
2019-02-15T02:11:07.854Z,-943.53
2019-02-15T02:12:08.105Z,-937.17
2019-02-15T02:13:08.336Z,-941.25
2019-02-15T02:14:08.548Z,-935.76
2019-02-15T02:15:08.780Z,-935.93
2019-02-15T02:16:09.041Z,-938.51
2019-02-15T02:17:09.226Z,-936.16
2019-02-15T02:18:09.475Z,-940.21
2019-02-15T02:19:09.691Z,-947.08
2019-02-15T02:20:09.925Z,-946.18
2019-02-15T02:21:10.170Z,-946.21
2019-02-15T02:22:10.388Z,-943.94
2019-02-15T02:23:10.620Z,-944.97
2019-02-15T02:24:10.943Z,-940.65
2019-02-15T02:25:11.073Z,-935.05
2019-02-15T02:26:11.541Z,-941.59
2019-02-15T02:27:11.534Z,-940.29
2019-02-15T02:28:11.792Z,-939.13
2019-02-15T02:29:12.002Z,-937.69
2019-02-15T02:30:12.247Z,-941.67
2019-02-15T02:31:12.505Z,-943.74
2019-02-15T02:32:12.736Z,-942.88
2019-02-15T02:33:13.011Z,-947.10
2019-02-15T02:34:13.175Z,-941.10
2019-02-15T02:35:13.402Z,-938.00
2019-02-15T02:36:13.663Z,-941.43
2019-02-15T02:37:13.879Z,-943.13
2019-02-15T02:38:14.146Z,-940.64
2019-02-15T02:39:14.340Z,-939.60
2019-02-15T02:40:14.569Z,-936.69
2019-02-15T02:41:14.951Z,-936.34
2019-02-15T02:42:15.082Z,-944.39
2019-02-15T02:43:15.344Z,-946.54
2019-02-15T02:44:15.538Z,-944.57
2019-02-15T02:45:15.750Z,-946.50
2019-02-15T02:46:16.016Z,-952.41
2019-02-15T02:47:16.243Z,-949.85
2019-02-15T02:48:16.522Z,-950.01
2019-02-15T02:49:16.817Z,-950.21
2019-02-15T02:50:16.914Z,-948.05
2019-02-15T02:51:17.174Z,-946.44
2019-02-15T02:52:17.399Z,-951.48
2019-02-15T02:53:17.647Z,-944.72
2019-02-15T02:54:17.858Z,-938.09
2019-02-15T02:55:18.088Z,-946.75
2019-02-15T02:56:18.328Z,-947.16
2019-02-15T02:57:18.570Z,-945.56
2019-02-15T02:58:18.768Z,-948.07
2019-02-15T02:59:18.984Z,-946.94
2019-02-15T03:00:19.236Z,-940.19
2019-02-15T03:01:19.470Z,-943.83
2019-02-15T03:02:19.669Z,-947.62
2019-02-15T03:03:19.935Z,-945.06
2019-02-15T03:04:20.167Z,-946.96
2019-02-15T03:05:20.453Z,-954.07
2019-02-15T03:06:20.620Z,-950.33
2019-02-15T03:07:20.844Z,-952.05
2019-02-15T03:08:21.078Z,-950.18
2019-02-15T03:09:21.333Z,-950.39
2019-02-15T03:10:21.610Z,-944.86
2019-02-15T03:11:21.823Z,-953.08
2019-02-15T03:12:22.039Z,-948.07
2019-02-15T03:13:22.291Z,-952.91
2019-02-15T03:14:22.608Z,-949.50
2019-02-15T03:15:22.771Z,-942.07
2019-02-15T03:16:23.001Z,-952.07
2019-02-15T03:17:23.219Z,-948.67
2019-02-15T03:18:23.467Z,-949.89
2019-02-15T03:19:23.675Z,-952.57
2019-02-15T03:20:30.827Z,-948.29
2019-02-15T03:21:25.174Z,-949.80
2019-02-15T03:22:24.496Z,-950.19
2019-02-15T03:23:24.616Z,-949.45
2019-02-15T03:24:24.837Z,-956.38
2019-02-15T03:25:25.088Z,-956.40
2019-02-15T03:26:25.329Z,-947.06
2019-02-15T03:27:25.554Z,-955.02
2019-02-15T03:28:25.772Z,-954.24
2019-02-15T03:29:26.019Z,-948.20
2019-02-15T03:30:26.291Z,-952.59
2019-02-15T03:31:26.486Z,-951.89
2019-02-15T03:32:26.686Z,-947.59
2019-02-15T03:33:26.937Z,-952.38
2019-02-15T03:34:27.171Z,-954.61
2019-02-15T03:35:27.360Z,-950.48
2019-02-15T03:36:27.616Z,-954.34
2019-02-15T03:37:27.839Z,-950.93
2019-02-15T03:38:28.167Z,-949.24
2019-02-15T03:39:28.304Z,-950.86
2019-02-15T03:40:28.521Z,-944.06
2019-02-15T03:41:28.788Z,-947.76
2019-02-15T03:42:28.966Z,-945.24
2019-02-15T03:43:29.201Z,-949.69
2019-02-15T03:44:29.462Z,-952.50
2019-02-15T03:45:29.676Z,-951.29
2019-02-15T03:46:29.993Z,-953.72
2019-02-15T03:47:30.141Z,-944.06
2019-02-15T03:48:30.409Z,-943.85
2019-02-15T03:49:30.623Z,-944.84
2019-02-15T03:50:30.841Z,-943.35
2019-02-15T03:51:31.088Z,-941.52
2019-02-15T03:52:31.294Z,-945.69
2019-02-15T03:53:31.528Z,-942.69
2019-02-15T03:54:31.792Z,-944.70
2019-02-15T03:55:32.081Z,-945.33
2019-02-15T03:56:32.256Z,-941.46
2019-02-15T03:57:32.428Z,-940.18
2019-02-15T03:58:32.660Z,-939.67
2019-02-15T03:59:32.924Z,-944.92
2019-02-15T04:00:33.137Z,-947.13
2019-02-15T04:01:33.429Z,-945.55
2019-02-15T04:02:33.595Z,-946.11
2019-02-15T04:03:34.064Z,-946.00
2019-02-15T04:04:34.407Z,-943.64
2019-02-15T04:05:34.401Z,-942.10
2019-02-15T04:06:34.657Z,-945.64
2019-02-15T04:07:34.859Z,-948.45
2019-02-15T04:08:35.099Z,-947.73
2019-02-15T04:09:35.321Z,-948.74
2019-02-15T04:10:35.563Z,-949.13
2019-02-15T04:11:35.863Z,-948.55
2019-02-15T04:12:35.993Z,-949.20
2019-02-15T04:13:36.229Z,-949.74
2019-02-15T04:14:36.484Z,-943.63
2019-02-15T04:15:36.677Z,-948.00
2019-02-15T04:16:36.929Z,-946.45
2019-02-15T04:17:37.149Z,-949.57
2019-02-15T04:18:37.408Z,-953.68
2019-02-15T04:19:37.655Z,-951.29
2019-02-15T04:20:37.802Z,-954.20
2019-02-15T04:21:38.094Z,-953.24
2019-02-15T04:22:38.315Z,-952.71
2019-02-15T04:23:38.566Z,-949.03
2019-02-15T04:24:38.802Z,-946.65
2019-02-15T04:25:39.044Z,-953.34
2019-02-15T04:26:39.234Z,-959.14
2019-02-15T04:27:39.521Z,-951.01
2019-02-15T04:28:39.769Z,-956.09
2019-02-15T04:29:39.975Z,-952.88
2019-02-15T04:30:40.188Z,-949.04
2019-02-15T04:31:40.437Z,-954.16
2019-02-15T04:32:40.647Z,-955.51
2019-02-15T04:33:40.879Z,-950.34
2019-02-15T04:34:41.122Z,-954.13
2019-02-15T04:35:41.356Z,-948.74
2019-02-15T04:36:41.718Z,-951.67
2019-02-15T04:37:41.819Z,-956.65
2019-02-15T04:38:42.052Z,-952.37
2019-02-15T04:39:42.296Z,-953.42
2019-02-15T04:40:42.505Z,-949.34
2019-02-15T04:41:42.763Z,-951.41
2019-02-15T04:42:42.980Z,-955.98
2019-02-15T04:43:43.190Z,-956.86
2019-02-15T04:44:43.544Z,-957.26
2019-02-15T04:45:43.665Z,-949.06
2019-02-15T04:46:43.911Z,-950.58
2019-02-15T04:47:44.138Z,-954.27
2019-02-15T04:48:44.333Z,-949.55
2019-02-15T04:49:44.617Z,-950.42
2019-02-15T04:50:44.811Z,-955.43
2019-02-15T04:51:45.044Z,-951.28
2019-02-15T04:52:45.322Z,-952.28
2019-02-15T04:53:45.466Z,-950.26
2019-02-15T04:54:45.734Z,-950.49
2019-02-15T04:55:45.951Z,-954.25
2019-02-15T04:56:46.180Z,-953.65
2019-02-15T04:57:46.439Z,-951.54
2019-02-15T04:58:46.648Z,-946.65
2019-02-15T04:59:46.915Z,-954.11
2019-02-15T05:00:47.113Z,-951.41
2019-02-15T05:01:47.313Z,-953.35
2019-02-15T05:02:47.587Z,-952.70
2019-02-15T05:03:47.791Z,-945.56
2019-02-15T05:04:48.067Z,-953.43
2019-02-15T05:05:48.233Z,-952.07
2019-02-15T05:06:48.468Z,-947.87
2019-02-15T05:07:48.728Z,-949.06
2019-02-15T05:08:48.980Z,-947.67
2019-02-15T05:09:49.282Z,-947.91
2019-02-15T05:10:49.402Z,-950.74
2019-02-15T05:11:49.632Z,-950.04
2019-02-15T05:12:49.910Z,-948.82
2019-02-15T05:13:50.118Z,-950.44
2019-02-15T05:14:53.097Z,-946.76
2019-02-15T05:15:50.577Z,-940.63
2019-02-15T05:16:50.794Z,-946.38
2019-02-15T05:17:51.197Z,-947.56
2019-02-15T05:18:51.281Z,-937.07
2019-02-15T05:19:51.541Z,-945.98
2019-02-15T05:20:51.755Z,-949.25
2019-02-15T05:21:51.951Z,-947.43
2019-02-15T05:22:52.501Z,-947.66
2019-02-15T05:23:52.458Z,-944.67
2019-02-15T05:24:52.686Z,-944.65
2019-02-15T05:25:52.990Z,-942.56
2019-02-15T05:26:53.120Z,-948.63
2019-02-15T05:27:53.381Z,-952.53
2019-02-15T05:28:53.600Z,-944.43
2019-02-15T05:29:53.835Z,-941.33
2019-02-15T05:30:54.077Z,-938.32
2019-02-15T05:31:54.306Z,-940.59
2019-02-15T05:32:54.584Z,-942.49
2019-02-15T05:33:54.791Z,-947.97
2019-02-15T05:34:54.993Z,-945.15
2019-02-15T05:35:55.233Z,-948.73
2019-02-15T05:36:55.444Z,-946.57
2019-02-15T05:37:55.695Z,-950.83
2019-02-15T05:38:55.903Z,-948.48
2019-02-15T05:39:56.128Z,-942.74
2019-02-15T05:40:56.376Z,-943.09
2019-02-15T05:41:56.633Z,-945.35
2019-02-15T05:42:57.093Z,-945.97
2019-02-15T05:43:57.075Z,-948.52
2019-02-15T05:45:03.314Z,-940.49
2019-02-15T05:45:58.564Z,-944.40
2019-02-15T05:46:57.774Z,-942.63
2019-02-15T05:47:58.047Z,-937.80
2019-02-15T05:48:58.242Z,-941.57
2019-02-15T05:49:58.496Z,-935.01
2019-02-15T05:50:58.811Z,-939.76
2019-02-15T05:51:58.935Z,-933.97
2019-02-15T05:52:59.194Z,-936.74
2019-02-15T05:53:59.394Z,-939.02
2019-02-15T05:54:59.622Z,-943.88
2019-02-15T05:55:59.854Z,-940.60
2019-02-15T05:57:00.087Z,-944.09
2019-02-15T05:58:00.370Z,-940.20
2019-02-15T05:59:00.689Z,-938.68
2019-02-15T06:00:00.788Z,-939.01
2019-02-15T06:01:01.017Z,-935.98
2019-02-15T06:02:01.244Z,-943.49
2019-02-15T06:03:01.520Z,-944.95
2019-02-15T06:04:01.712Z,-940.61
2019-02-15T06:05:01.951Z,-939.88
2019-02-15T06:06:02.199Z,-940.65
2019-02-15T06:07:02.448Z,-938.42
2019-02-15T06:08:02.669Z,-938.83
2019-02-15T06:09:02.866Z,-940.24
2019-02-15T06:10:03.113Z,-942.52
2019-02-15T06:11:07.515Z,-935.97
2019-02-15T06:12:03.543Z,-939.06
2019-02-15T06:13:03.790Z,-937.83
2019-02-15T06:14:04.022Z,-936.87
2019-02-15T06:15:14.439Z,-936.91
2019-02-15T06:16:05.483Z,-940.46
2019-02-15T06:17:04.698Z,-942.49
2019-02-15T06:18:04.934Z,-935.41
2019-02-15T06:19:05.156Z,-935.72
2019-02-15T06:20:05.413Z,-935.04
2019-02-15T06:21:05.652Z,-934.73
2019-02-15T06:22:05.872Z,-933.01
2019-02-15T06:23:06.165Z,-934.83
2019-02-15T06:24:06.408Z,-935.66
2019-02-15T06:25:06.590Z,-932.21
2019-02-15T06:26:06.820Z,-936.45
2019-02-15T06:27:07.024Z,-931.66
2019-02-15T06:28:07.287Z,-936.72
2019-02-15T06:29:07.491Z,-932.82
2019-02-15T06:30:07.710Z,-934.29
2019-02-15T06:31:07.986Z,-938.50
2019-02-15T06:32:08.320Z,-921.41
2019-02-15T06:33:08.436Z,-926.86
2019-02-15T06:34:08.658Z,-918.96
2019-02-15T06:35:08.919Z,-865.44
2019-02-15T06:36:09.163Z,-919.98
2019-02-15T06:37:09.378Z,-921.30
2019-02-15T06:38:09.603Z,-926.40
2019-02-15T06:39:09.854Z,-928.29
2019-02-15T06:40:10.168Z,-930.81
2019-02-15T06:41:12.178Z,-927.60
2019-02-15T06:42:10.546Z,-925.32
2019-02-15T06:43:10.784Z,-934.03
2019-02-15T06:44:11.036Z,-924.78
2019-02-15T06:45:11.228Z,-927.77
2019-02-15T06:46:11.496Z,-924.50
2019-02-15T06:47:11.704Z,-934.68
2019-02-15T06:48:11.972Z,-930.88
2019-02-15T06:49:12.236Z,-934.60
2019-02-15T06:50:12.371Z,-931.83
2019-02-15T06:51:12.638Z,-933.28
2019-02-15T06:52:12.867Z,-928.51
2019-02-15T06:53:13.098Z,-925.25
2019-02-15T06:54:13.355Z,-930.45
2019-02-15T06:55:13.556Z,-932.85
2019-02-15T06:56:13.862Z,-929.71
2019-02-15T06:57:13.977Z,-922.91
2019-02-15T06:58:14.224Z,-928.83
2019-02-15T06:59:14.493Z,-922.73
2019-02-15T07:00:14.686Z,-923.44
2019-02-15T07:01:14.937Z,-920.82
2019-02-15T07:02:15.169Z,-912.55
2019-02-15T07:03:15.375Z,-913.32
2019-02-15T07:04:15.685Z,-911.65
2019-02-15T07:05:15.915Z,-922.61
2019-02-15T07:06:16.096Z,-908.35
2019-02-15T07:07:16.291Z,-926.25
2019-02-15T07:08:16.522Z,-920.22
2019-02-15T07:09:16.790Z,-919.32
2019-02-15T07:10:17.002Z,-919.26
2019-02-15T07:11:17.245Z,-922.73
2019-02-15T07:12:17.472Z,-916.12
2019-02-15T07:13:17.804Z,-915.90
2019-02-15T07:14:17.943Z,-918.69
2019-02-15T07:15:18.147Z,-914.74
2019-02-15T07:16:18.397Z,-917.60
2019-02-15T07:17:18.654Z,-924.09
2019-02-15T07:18:18.820Z,-920.63
2019-02-15T07:19:19.074Z,-918.29
2019-02-15T07:20:19.298Z,-926.45
2019-02-15T07:21:19.921Z,-923.58
2019-02-15T07:22:19.761Z,-923.76
2019-02-15T07:23:20.018Z,-920.13
2019-02-15T07:24:20.240Z,-921.26
2019-02-15T07:25:20.464Z,-921.62
2019-02-15T07:26:20.715Z,-924.50
2019-02-15T07:27:20.927Z,-923.00
2019-02-15T07:28:21.157Z,-925.71
2019-02-15T07:29:21.450Z,-920.78
2019-02-15T07:30:21.600Z,-923.66
2019-02-15T07:31:21.854Z,-921.64
2019-02-15T07:32:22.083Z,-928.30
2019-02-15T07:33:22.311Z,-920.61
2019-02-15T07:34:22.584Z,-912.32
2019-02-15T07:35:22.781Z,-916.29
2019-02-15T07:36:22.996Z,-924.34
2019-02-15T07:37:23.300Z,-920.09
2019-02-15T07:38:23.461Z,-918.26
2019-02-15T07:39:23.717Z,-914.95
2019-02-15T07:40:23.938Z,-918.38
2019-02-15T07:41:24.151Z,-920.01
2019-02-15T07:42:24.416Z,-869.31
2019-02-15T07:43:24.662Z,-871.16
2019-02-15T07:44:24.936Z,-871.73
2019-02-15T07:45:25.147Z,-868.77
2019-02-15T07:46:25.413Z,-866.48
2019-02-15T07:47:25.649Z,-873.01
2019-02-15T07:48:25.811Z,-868.51
2019-02-15T07:49:26.796Z,-863.40
2019-02-15T07:50:26.309Z,-871.44
2019-02-15T07:51:26.520Z,-870.13
2019-02-15T07:52:26.735Z,-869.89
2019-02-15T07:53:26.982Z,-866.44
2019-02-15T07:54:27.361Z,-868.52
2019-02-15T07:55:27.466Z,-871.75
2019-02-15T07:56:27.679Z,-867.24
2019-02-15T07:57:27.907Z,-875.98
2019-02-15T07:58:28.132Z,-874.78
2019-02-15T07:59:28.378Z,-876.67
2019-02-15T08:00:28.625Z,-874.08
2019-02-15T08:01:28.834Z,-874.22
2019-02-15T08:02:29.144Z,-877.02
2019-02-15T08:03:29.283Z,-874.86
2019-02-15T08:04:29.533Z,-873.24
2019-02-15T08:05:29.757Z,-874.66
2019-02-15T08:06:29.977Z,-875.13
2019-02-15T08:07:30.234Z,-876.26
2019-02-15T08:08:30.434Z,-874.97
2019-02-15T08:09:30.686Z,-876.36
2019-02-15T08:10:30.961Z,-880.35
2019-02-15T08:11:31.110Z,-878.05
2019-02-15T08:12:31.369Z,-877.40
2019-02-15T08:13:31.580Z,-881.90
2019-02-15T08:14:31.823Z,-884.98
2019-02-15T08:15:36.226Z,-880.57
2019-02-15T08:16:32.289Z,-878.00
2019-02-15T08:17:32.516Z,-876.12
2019-02-15T08:18:32.787Z,-878.72
2019-02-15T08:19:32.952Z,-877.52
2019-02-15T08:20:33.181Z,-876.45
2019-02-15T08:21:33.427Z,-882.11
2019-02-15T08:22:33.670Z,-879.03
2019-02-15T08:23:33.883Z,-877.09
2019-02-15T08:24:34.130Z,-877.49
2019-02-15T08:25:34.357Z,-877.98
2019-02-15T08:26:34.632Z,-879.03
2019-02-15T08:27:34.908Z,-881.20
2019-02-15T08:28:35.043Z,-876.33
2019-02-15T08:29:35.285Z,-879.75
2019-02-15T08:30:35.498Z,-877.42
2019-02-15T08:31:35.749Z,-875.49
2019-02-15T08:32:35.993Z,-879.87
2019-02-15T08:33:36.207Z,-878.29
2019-02-15T08:34:36.456Z,-872.38
2019-02-15T08:35:36.816Z,-875.57
2019-02-15T08:36:36.928Z,-876.15
2019-02-15T08:37:37.181Z,-873.81
2019-02-15T08:38:37.395Z,-878.34
2019-02-15T08:39:37.630Z,-871.94
2019-02-15T08:40:37.889Z,-872.12
2019-02-15T08:41:38.085Z,-874.95
2019-02-15T08:42:38.337Z,-882.69
2019-02-15T08:43:38.673Z,-876.25
2019-02-15T08:44:38.783Z,-870.17
2019-02-15T08:45:39.032Z,-869.99
2019-02-15T08:46:39.272Z,-874.90
2019-02-15T08:47:39.784Z,-874.51
2019-02-15T08:48:45.951Z,-874.96
2019-02-15T08:49:40.956Z,-876.29
2019-02-15T08:50:40.224Z,-875.73
2019-02-15T08:51:40.461Z,-872.90
2019-02-15T08:52:40.630Z,-871.79
2019-02-15T08:53:40.851Z,-877.90
2019-02-15T08:54:41.095Z,-874.64
2019-02-15T08:55:41.337Z,-874.53
2019-02-15T08:56:41.558Z,-872.54
2019-02-15T08:57:41.801Z,-871.50
2019-02-15T08:58:42.017Z,-872.51
2019-02-15T08:59:42.263Z,-868.59
2019-02-15T09:00:42.774Z,-876.73
2019-02-15T09:01:42.720Z,-863.38
2019-02-15T09:02:42.965Z,-873.19
2019-02-15T09:03:43.165Z,-871.83
2019-02-15T09:04:43.393Z,-871.40
2019-02-15T09:05:43.649Z,-859.58
2019-02-15T09:06:43.877Z,-867.61
2019-02-15T09:07:44.150Z,-863.46
2019-02-15T09:08:44.426Z,-867.57
2019-02-15T09:09:44.544Z,-868.02
2019-02-15T09:10:44.807Z,-868.22
2019-02-15T09:11:45.019Z,-866.83
2019-02-15T09:12:45.263Z,-872.25
2019-02-15T09:13:45.484Z,-868.81
2019-02-15T09:14:45.702Z,-863.68
2019-02-15T09:15:45.944Z,-862.77
2019-02-15T09:16:46.264Z,-870.55
2019-02-15T09:17:46.416Z,-865.29
2019-02-15T09:18:46.634Z,-862.83
2019-02-15T09:19:47.044Z,-868.22
2019-02-15T09:20:47.122Z,-868.29
2019-02-15T09:21:47.339Z,-862.79
2019-02-15T09:22:47.589Z,-865.21
2019-02-15T09:23:47.802Z,-866.33
2019-02-15T09:24:48.059Z,-866.05
2019-02-15T09:25:48.263Z,-856.05
2019-02-15T09:26:48.498Z,-862.95
2019-02-15T09:27:48.727Z,-864.69
2019-02-15T09:28:48.942Z,-862.12
2019-02-15T09:29:49.177Z,-865.10
2019-02-15T09:30:49.422Z,-867.05
2019-02-15T09:31:49.635Z,-855.84
2019-02-15T09:32:49.955Z,-864.08
2019-02-15T09:33:50.093Z,-861.81
2019-02-15T09:34:50.324Z,-858.98
2019-02-15T09:35:50.572Z,-869.50
2019-02-15T09:36:50.808Z,-860.62
2019-02-15T09:37:51.031Z,-864.53
2019-02-15T09:38:51.253Z,-864.22
2019-02-15T09:39:51.493Z,-860.32
2019-02-15T09:40:51.779Z,-860.46
2019-02-15T09:41:52.032Z,-860.55
2019-02-15T09:42:52.178Z,-863.63
2019-02-15T09:43:52.424Z,-865.28
2019-02-15T09:44:52.646Z,-860.96
2019-02-15T09:45:52.903Z,-865.68
2019-02-15T09:46:53.128Z,-861.47
2019-02-15T09:47:53.351Z,-866.82
2019-02-15T09:48:53.617Z,-863.99
2019-02-15T09:49:53.901Z,-869.60
2019-02-15T09:50:54.068Z,-864.11
2019-02-15T09:51:55.507Z,-858.42
2019-02-15T09:52:54.497Z,-864.33
2019-02-15T09:53:54.740Z,-862.59
2019-02-15T09:54:54.992Z,-864.66
2019-02-15T09:55:55.237Z,-858.09
2019-02-15T09:56:55.503Z,-856.96
2019-02-15T09:57:55.776Z,-907.08
2019-02-15T09:58:55.908Z,-910.42
2019-02-15T09:59:56.132Z,-909.50
2019-02-15T10:00:56.385Z,-908.33
2019-02-15T10:01:56.610Z,-916.33
2019-02-15T10:02:56.830Z,-923.82
2019-02-15T10:03:57.081Z,-863.65
2019-02-15T10:04:57.276Z,-912.32
2019-02-15T10:05:57.587Z,-912.30
2019-02-15T10:06:57.745Z,-910.62
2019-02-15T10:07:57.973Z,-912.58
2019-02-15T10:08:58.220Z,-914.43
2019-02-15T10:09:58.420Z,-915.80
2019-02-15T10:10:58.674Z,-920.09
2019-02-15T10:11:58.912Z,-917.76
2019-02-15T10:12:59.128Z,-913.14
2019-02-15T10:13:59.430Z,-912.56
2019-02-15T10:14:59.581Z,-913.50
2019-02-15T10:15:59.808Z,-911.72
2019-02-15T10:17:00.027Z,-916.12
2019-02-15T10:18:00.273Z,-910.76
2019-02-15T10:19:00.529Z,-914.67
2019-02-15T10:20:00.755Z,-917.89
2019-02-15T10:21:00.974Z,-913.81
2019-02-15T10:22:01.207Z,-908.01
2019-02-15T10:23:01.483Z,-913.79
2019-02-15T10:24:01.695Z,-909.34
2019-02-15T10:25:01.932Z,-911.81
2019-02-15T10:26:02.148Z,-907.11
2019-02-15T10:27:02.358Z,-912.28
2019-02-15T10:28:02.599Z,-910.19
2019-02-15T10:29:02.861Z,-916.20
2019-02-15T10:30:03.079Z,-914.04
2019-02-15T10:31:03.449Z,-914.65
2019-02-15T10:32:03.566Z,-917.11
2019-02-15T10:33:03.792Z,-913.43
2019-02-15T10:34:04.034Z,-913.07
2019-02-15T10:35:04.279Z,-911.71
2019-02-15T10:36:04.497Z,-910.30
2019-02-15T10:37:04.704Z,-914.12
2019-02-15T10:38:04.927Z,-911.89
2019-02-15T10:39:05.521Z,-910.43
2019-02-15T10:40:05.417Z,-915.77
2019-02-15T10:41:05.633Z,-911.53
2019-02-15T10:42:05.854Z,-914.48
2019-02-15T10:43:06.069Z,-912.79
2019-02-15T10:44:06.317Z,-911.69
2019-02-15T10:45:06.557Z,-913.70
2019-02-15T10:46:06.776Z,-913.22
2019-02-15T10:47:13.870Z,-918.95
2019-02-15T10:48:08.224Z,-908.73
2019-02-15T10:49:07.464Z,-915.40
2019-02-15T10:50:07.683Z,-919.32
2019-02-15T10:51:07.919Z,-917.22
2019-02-15T10:52:08.178Z,-913.31
2019-02-15T10:53:08.402Z,-916.54
2019-02-15T10:54:08.644Z,-923.48
2019-02-15T10:55:08.929Z,-925.28
2019-02-15T10:56:09.076Z,-923.40
2019-02-15T10:57:09.366Z,-927.19
2019-02-15T10:58:09.583Z,-916.84
2019-02-15T10:59:11.122Z,-916.07
2019-02-15T11:00:10.053Z,-914.17
2019-02-15T11:01:10.260Z,-920.56
2019-02-15T11:02:10.510Z,-921.46
2019-02-15T11:03:10.756Z,-914.59
2019-02-15T11:04:11.076Z,-918.18
2019-02-15T11:05:11.215Z,-913.76
2019-02-15T11:06:11.411Z,-914.10
2019-02-15T11:07:11.711Z,-912.69
2019-02-15T11:08:11.888Z,-910.59
2019-02-15T11:09:12.135Z,-922.31
2019-02-15T11:10:12.352Z,-916.78
2019-02-15T11:11:12.582Z,-925.76
2019-02-15T11:12:12.935Z,-915.91
2019-02-15T11:13:13.034Z,-926.56
2019-02-15T11:14:13.291Z,-923.81
2019-02-15T11:15:13.498Z,-927.70
2019-02-15T11:16:13.732Z,-933.70
2019-02-15T11:17:13.989Z,-932.57
2019-02-15T11:18:14.202Z,-921.99
2019-02-15T11:19:14.464Z,-922.41
2019-02-15T11:20:14.789Z,-929.28
2019-02-15T11:21:14.957Z,-925.62
2019-02-15T11:22:22.113Z,-922.69
2019-02-15T11:23:15.417Z,-932.22
2019-02-15T11:24:15.609Z,-921.50
2019-02-15T11:25:15.824Z,-926.75
2019-02-15T11:26:24.275Z,-913.36
2019-02-15T11:27:22.974Z,-910.44
2019-02-15T11:28:16.556Z,-920.48
2019-02-15T11:29:16.736Z,-916.94
2019-02-15T11:30:16.973Z,-918.47
2019-02-15T11:31:17.206Z,-918.46
2019-02-15T11:32:17.472Z,-922.92
2019-02-15T11:33:17.677Z,-929.45
2019-02-15T11:34:17.909Z,-920.66
2019-02-15T11:35:18.109Z,-931.19
2019-02-15T11:36:18.447Z,-917.90
2019-02-15T11:37:18.625Z,-921.39
2019-02-15T11:38:18.831Z,-889.82
2019-02-15T11:39:19.073Z,-915.65
2019-02-15T11:40:19.285Z,-914.02
2019-02-15T11:41:19.545Z,-922.57
2019-02-15T11:42:19.779Z,-917.56
2019-02-15T11:43:19.987Z,-921.83
2019-02-15T11:44:20.258Z,-918.43
2019-02-15T11:45:20.556Z,-935.90
2019-02-15T11:46:20.719Z,-925.64
2019-02-15T11:47:20.941Z,-938.09
2019-02-15T11:48:21.150Z,-946.24
2019-02-15T11:49:21.430Z,-933.23
2019-02-15T11:50:21.609Z,-926.40
2019-02-15T11:51:21.851Z,-917.12
2019-02-15T11:52:22.088Z,-923.68
2019-02-15T11:53:22.437Z,-950.87
2019-02-15T11:54:23.670Z,-955.82
2019-02-15T11:55:22.758Z,-947.31
2019-02-15T11:56:22.999Z,-939.85
2019-02-15T11:57:23.253Z,-942.51
2019-02-15T11:58:23.467Z,-942.65
2019-02-15T11:59:23.698Z,-940.73
2019-02-15T12:00:23.942Z,-936.63
2019-02-15T12:01:24.261Z,-937.47
2019-02-15T12:02:24.424Z,-941.10
2019-02-15T12:03:24.652Z,-937.56
2019-02-15T12:04:24.878Z,-924.29
2019-02-15T12:05:25.119Z,-928.68
2019-02-15T12:06:25.335Z,-929.10
2019-02-15T12:07:25.581Z,-948.40
2019-02-15T12:08:25.786Z,-942.94